sensor_id;sensor_type;location;lat;lon;timestamp;P1;durP1;ratioP1;P2;durP2;ratioP2
12774;SDS011;6451;42.630;23.382;2023-04-06T00:02:00;8.53;;;7.40;;
12774;SDS011;6451;42.630;23.382;2023-04-06T00:04:27;7.97;;;7.10;;
12774;SDS011;6451;42.630;23.382;2023-04-06T00:06:54;8.67;;;7.77;;
12774;SDS011;6451;42.630;23.382;2023-04-06T00:11:52;8.43;;;7.27;;
12774;SDS011;6451;42.630;23.382;2023-04-06T00:14:21;8.67;;;7.03;;
12774;SDS011;6451;42.630;23.382;2023-04-06T00:16:48;10.13;;;7.63;;
12774;SDS011;6451;42.630;23.382;2023-04-06T00:19:15;8.57;;;7.27;;
12774;SDS011;6451;42.630;23.382;2023-04-06T00:21:42;8.50;;;7.43;;
12774;SDS011;6451;42.630;23.382;2023-04-06T00:24:08;8.70;;;7.27;;
12774;SDS011;6451;42.630;23.382;2023-04-06T00:26:35;9.57;;;7.20;;
12774;SDS011;6451;42.630;23.382;2023-04-06T00:29:04;8.53;;;7.20;;
12774;SDS011;6451;42.630;23.382;2023-04-06T00:31:31;8.20;;;7.33;;
12774;SDS011;6451;42.630;23.382;2023-04-06T00:33:59;8.23;;;7.27;;
12774;SDS011;6451;42.630;23.382;2023-04-06T00:36:26;8.27;;;7.33;;
12774;SDS011;6451;42.630;23.382;2023-04-06T00:38:54;8.17;;;6.90;;
12774;SDS011;6451;42.630;23.382;2023-04-06T00:41:21;10.07;;;7.90;;
12774;SDS011;6451;42.630;23.382;2023-04-06T00:43:50;7.87;;;6.30;;
12774;SDS011;6451;42.630;23.382;2023-04-06T00:46:18;8.10;;;6.87;;
12774;SDS011;6451;42.630;23.382;2023-04-06T00:48:46;9.43;;;7.97;;
12774;SDS011;6451;42.630;23.382;2023-04-06T00:51:13;8.67;;;7.53;;
12774;SDS011;6451;42.630;23.382;2023-04-06T00:53:40;8.67;;;7.20;;
12774;SDS011;6451;42.630;23.382;2023-04-06T00:56:13;8.33;;;6.90;;
12774;SDS011;6451;42.630;23.382;2023-04-06T00:58:40;8.60;;;7.60;;
12774;SDS011;6451;42.630;23.382;2023-04-06T01:01:08;9.43;;;6.53;;
12774;SDS011;6451;42.630;23.382;2023-04-06T01:03:37;8.73;;;7.23;;
12774;SDS011;6451;42.630;23.382;2023-04-06T01:06:04;8.83;;;7.20;;
12774;SDS011;6451;42.630;23.382;2023-04-06T01:08:32;8.20;;;7.40;;
12774;SDS011;6451;42.630;23.382;2023-04-06T01:10:59;8.97;;;7.47;;
12774;SDS011;6451;42.630;23.382;2023-04-06T01:13:26;8.17;;;7.33;;
12774;SDS011;6451;42.630;23.382;2023-04-06T01:15:54;9.37;;;7.53;;
12774;SDS011;6451;42.630;23.382;2023-04-06T01:18:25;9.57;;;7.23;;
12774;SDS011;6451;42.630;23.382;2023-04-06T01:20:54;9.50;;;7.60;;
12774;SDS011;6451;42.630;23.382;2023-04-06T01:23:22;9.03;;;8.07;;
12774;SDS011;6451;42.630;23.382;2023-04-06T01:25:49;9.93;;;7.30;;
12774;SDS011;6451;42.630;23.382;2023-04-06T01:28:17;9.73;;;7.87;;
12774;SDS011;6451;42.630;23.382;2023-04-06T01:30:43;8.63;;;7.73;;
12774;SDS011;6451;42.630;23.382;2023-04-06T01:33:10;9.97;;;7.20;;
12774;SDS011;6451;42.630;23.382;2023-04-06T01:35:37;8.70;;;7.53;;
12774;SDS011;6451;42.630;23.382;2023-04-06T01:38:04;9.00;;;7.33;;
12774;SDS011;6451;42.630;23.382;2023-04-06T01:40:33;9.67;;;7.67;;
12774;SDS011;6451;42.630;23.382;2023-04-06T01:43:00;8.43;;;7.43;;
12774;SDS011;6451;42.630;23.382;2023-04-06T01:45:28;9.13;;;7.77;;
12774;SDS011;6451;42.630;23.382;2023-04-06T01:47:55;8.33;;;7.37;;
12774;SDS011;6451;42.630;23.382;2023-04-06T01:50:23;8.33;;;7.33;;
12774;SDS011;6451;42.630;23.382;2023-04-06T01:52:50;7.73;;;6.90;;
12774;SDS011;6451;42.630;23.382;2023-04-06T01:55:17;7.23;;;5.90;;
12774;SDS011;6451;42.630;23.382;2023-04-06T01:57:46;9.83;;;8.30;;
12774;SDS011;6451;42.630;23.382;2023-04-06T02:00:13;9.27;;;7.10;;
12774;SDS011;6451;42.630;23.382;2023-04-06T02:02:42;9.63;;;7.43;;
12774;SDS011;6451;42.630;23.382;2023-04-06T02:05:10;10.20;;;7.50;;
12774;SDS011;6451;42.630;23.382;2023-04-06T02:07:37;8.87;;;6.80;;
12774;SDS011;6451;42.630;23.382;2023-04-06T02:10:06;10.00;;;7.27;;
12774;SDS011;6451;42.630;23.382;2023-04-06T02:12:38;8.03;;;6.43;;
12774;SDS011;6451;42.630;23.382;2023-04-06T02:15:07;8.33;;;7.40;;
12774;SDS011;6451;42.630;23.382;2023-04-06T02:17:35;7.93;;;6.60;;
12774;SDS011;6451;42.630;23.382;2023-04-06T02:20:02;8.97;;;6.60;;
12774;SDS011;6451;42.630;23.382;2023-04-06T02:22:29;7.87;;;6.90;;
12774;SDS011;6451;42.630;23.382;2023-04-06T02:24:56;10.20;;;7.83;;
12774;SDS011;6451;42.630;23.382;2023-04-06T02:27:23;10.70;;;7.60;;
12774;SDS011;6451;42.630;23.382;2023-04-06T02:29:51;9.27;;;7.63;;
12774;SDS011;6451;42.630;23.382;2023-04-06T02:32:20;8.23;;;7.27;;
12774;SDS011;6451;42.630;23.382;2023-04-06T02:34:47;7.07;;;5.67;;
12774;SDS011;6451;42.630;23.382;2023-04-06T02:37:13;9.33;;;7.27;;
12774;SDS011;6451;42.630;23.382;2023-04-06T02:39:42;9.50;;;8.10;;
12774;SDS011;6451;42.630;23.382;2023-04-06T02:42:11;7.97;;;6.80;;
12774;SDS011;6451;42.630;23.382;2023-04-06T02:44:40;8.60;;;7.03;;
12774;SDS011;6451;42.630;23.382;2023-04-06T02:47:07;8.37;;;7.00;;
12774;SDS011;6451;42.630;23.382;2023-04-06T02:49:35;9.27;;;7.60;;
12774;SDS011;6451;42.630;23.382;2023-04-06T02:52:03;9.87;;;7.40;;
12774;SDS011;6451;42.630;23.382;2023-04-06T02:54:30;8.57;;;7.17;;
12774;SDS011;6451;42.630;23.382;2023-04-06T02:56:58;7.63;;;6.47;;
12774;SDS011;6451;42.630;23.382;2023-04-06T02:59:25;7.97;;;6.60;;
12774;SDS011;6451;42.630;23.382;2023-04-06T03:01:52;9.20;;;7.50;;
12774;SDS011;6451;42.630;23.382;2023-04-06T03:04:20;10.13;;;7.47;;
12774;SDS011;6451;42.630;23.382;2023-04-06T03:06:53;7.10;;;6.03;;
12774;SDS011;6451;42.630;23.382;2023-04-06T03:09:20;9.07;;;6.83;;
12774;SDS011;6451;42.630;23.382;2023-04-06T03:11:47;8.40;;;7.43;;
12774;SDS011;6451;42.630;23.382;2023-04-06T03:14:14;8.77;;;7.30;;
12774;SDS011;6451;42.630;23.382;2023-04-06T03:16:48;8.40;;;7.07;;
12774;SDS011;6451;42.630;23.382;2023-04-06T03:19:15;10.63;;;6.97;;
12774;SDS011;6451;42.630;23.382;2023-04-06T03:21:42;9.33;;;8.23;;
12774;SDS011;6451;42.630;23.382;2023-04-06T03:24:11;9.43;;;8.17;;
12774;SDS011;6451;42.630;23.382;2023-04-06T03:26:38;8.20;;;7.10;;
12774;SDS011;6451;42.630;23.382;2023-04-06T03:29:06;9.90;;;7.50;;
12774;SDS011;6451;42.630;23.382;2023-04-06T03:31:33;9.97;;;7.77;;
12774;SDS011;6451;42.630;23.382;2023-04-06T03:34:00;9.30;;;7.50;;
12774;SDS011;6451;42.630;23.382;2023-04-06T03:36:27;9.93;;;7.60;;
12774;SDS011;6451;42.630;23.382;2023-04-06T03:38:54;9.10;;;7.03;;
12774;SDS011;6451;42.630;23.382;2023-04-06T03:41:22;7.40;;;6.23;;
12774;SDS011;6451;42.630;23.382;2023-04-06T03:43:50;9.70;;;7.47;;
12774;SDS011;6451;42.630;23.382;2023-04-06T03:46:17;8.20;;;6.77;;
12774;SDS011;6451;42.630;23.382;2023-04-06T03:48:47;8.63;;;7.10;;
12774;SDS011;6451;42.630;23.382;2023-04-06T03:51:15;8.53;;;6.77;;
12774;SDS011;6451;42.630;23.382;2023-04-06T03:53:42;8.67;;;6.97;;
12774;SDS011;6451;42.630;23.382;2023-04-06T03:56:10;7.87;;;6.93;;
12774;SDS011;6451;42.630;23.382;2023-04-06T03:58:38;8.40;;;7.33;;
12774;SDS011;6451;42.630;23.382;2023-04-06T04:01:05;7.80;;;6.53;;
12774;SDS011;6451;42.630;23.382;2023-04-06T04:03:32;7.67;;;6.57;;
12774;SDS011;6451;42.630;23.382;2023-04-06T04:05:59;8.00;;;6.13;;
12774;SDS011;6451;42.630;23.382;2023-04-06T04:08:26;7.10;;;6.07;;
12774;SDS011;6451;42.630;23.382;2023-04-06T04:10:53;8.37;;;6.60;;
12774;SDS011;6451;42.630;23.382;2023-04-06T04:13:20;7.23;;;6.00;;
12774;SDS011;6451;42.630;23.382;2023-04-06T04:15:48;7.67;;;6.63;;
12774;SDS011;6451;42.630;23.382;2023-04-06T04:18:16;8.07;;;5.97;;
12774;SDS011;6451;42.630;23.382;2023-04-06T04:20:44;9.20;;;6.80;;
12774;SDS011;6451;42.630;23.382;2023-04-06T04:23:11;8.27;;;6.37;;
12774;SDS011;6451;42.630;23.382;2023-04-06T04:25:38;8.33;;;6.30;;
12774;SDS011;6451;42.630;23.382;2023-04-06T04:28:05;6.77;;;6.07;;
12774;SDS011;6451;42.630;23.382;2023-04-06T04:30:33;7.53;;;6.70;;
12774;SDS011;6451;42.630;23.382;2023-04-06T04:33:01;7.77;;;6.63;;
12774;SDS011;6451;42.630;23.382;2023-04-06T04:35:28;7.80;;;7.00;;
12774;SDS011;6451;42.630;23.382;2023-04-06T04:37:55;8.13;;;6.47;;
12774;SDS011;6451;42.630;23.382;2023-04-06T04:40:22;9.67;;;6.97;;
12774;SDS011;6451;42.630;23.382;2023-04-06T04:42:51;7.87;;;6.33;;
12774;SDS011;6451;42.630;23.382;2023-04-06T04:45:18;9.13;;;7.03;;
12774;SDS011;6451;42.630;23.382;2023-04-06T04:47:45;8.47;;;6.90;;
12774;SDS011;6451;42.630;23.382;2023-04-06T04:50:14;9.10;;;6.60;;
12774;SDS011;6451;42.630;23.382;2023-04-06T04:52:42;10.13;;;7.93;;
12774;SDS011;6451;42.630;23.382;2023-04-06T04:55:09;8.00;;;6.67;;
12774;SDS011;6451;42.630;23.382;2023-04-06T04:57:37;9.63;;;7.17;;
12774;SDS011;6451;42.630;23.382;2023-04-06T05:00:05;8.70;;;6.33;;
12774;SDS011;6451;42.630;23.382;2023-04-06T05:02:33;8.43;;;7.47;;
12774;SDS011;6451;42.630;23.382;2023-04-06T05:05:00;10.10;;;7.60;;
12774;SDS011;6451;42.630;23.382;2023-04-06T05:07:29;10.50;;;7.27;;
12774;SDS011;6451;42.630;23.382;2023-04-06T05:09:56;7.70;;;6.90;;
12774;SDS011;6451;42.630;23.382;2023-04-06T05:12:23;8.50;;;7.23;;
12774;SDS011;6451;42.630;23.382;2023-04-06T05:14:51;8.60;;;7.33;;
12774;SDS011;6451;42.630;23.382;2023-04-06T05:17:18;8.73;;;7.03;;
12774;SDS011;6451;42.630;23.382;2023-04-06T05:19:46;9.20;;;7.53;;
12774;SDS011;6451;42.630;23.382;2023-04-06T05:22:13;9.87;;;6.73;;
12774;SDS011;6451;42.630;23.382;2023-04-06T05:24:44;8.53;;;7.63;;
12774;SDS011;6451;42.630;23.382;2023-04-06T05:27:11;9.60;;;7.60;;
12774;SDS011;6451;42.630;23.382;2023-04-06T05:29:38;9.00;;;7.17;;
12774;SDS011;6451;42.630;23.382;2023-04-06T05:32:05;12.10;;;8.07;;
12774;SDS011;6451;42.630;23.382;2023-04-06T05:37:03;9.70;;;7.30;;
12774;SDS011;6451;42.630;23.382;2023-04-06T05:39:30;11.13;;;7.80;;
12774;SDS011;6451;42.630;23.382;2023-04-06T05:42:01;11.20;;;7.60;;
12774;SDS011;6451;42.630;23.382;2023-04-06T05:44:36;14.47;;;7.80;;
12774;SDS011;6451;42.630;23.382;2023-04-06T05:47:04;8.90;;;7.80;;
12774;SDS011;6451;42.630;23.382;2023-04-06T05:49:31;10.80;;;8.10;;
12774;SDS011;6451;42.630;23.382;2023-04-06T05:51:58;12.43;;;8.37;;
12774;SDS011;6451;42.630;23.382;2023-04-06T05:54:25;10.47;;;8.00;;
12774;SDS011;6451;42.630;23.382;2023-04-06T05:56:52;10.20;;;8.10;;
12774;SDS011;6451;42.630;23.382;2023-04-06T05:59:20;8.73;;;7.23;;
12774;SDS011;6451;42.630;23.382;2023-04-06T06:01:48;10.83;;;7.63;;
12774;SDS011;6451;42.630;23.382;2023-04-06T06:04:15;11.80;;;8.27;;
12774;SDS011;6451;42.630;23.382;2023-04-06T06:06:43;10.70;;;8.10;;
12774;SDS011;6451;42.630;23.382;2023-04-06T06:09:10;10.37;;;8.70;;
12774;SDS011;6451;42.630;23.382;2023-04-06T06:11:37;11.27;;;8.30;;
12774;SDS011;6451;42.630;23.382;2023-04-06T06:14:04;10.67;;;7.53;;
12774;SDS011;6451;42.630;23.382;2023-04-06T06:16:33;11.23;;;8.60;;
12774;SDS011;6451;42.630;23.382;2023-04-06T06:19:00;10.30;;;8.60;;
12774;SDS011;6451;42.630;23.382;2023-04-06T06:21:27;15.67;;;9.73;;
12774;SDS011;6451;42.630;23.382;2023-04-06T06:23:55;12.60;;;9.47;;
12774;SDS011;6451;42.630;23.382;2023-04-06T06:26:23;10.73;;;9.07;;
12774;SDS011;6451;42.630;23.382;2023-04-06T06:28:52;10.60;;;9.10;;
12774;SDS011;6451;42.630;23.382;2023-04-06T06:31:19;12.80;;;9.00;;
12774;SDS011;6451;42.630;23.382;2023-04-06T06:33:50;11.03;;;8.13;;
12774;SDS011;6451;42.630;23.382;2023-04-06T06:38:52;11.17;;;8.47;;
12774;SDS011;6451;42.630;23.382;2023-04-06T06:41:19;14.67;;;10.53;;
12774;SDS011;6451;42.630;23.382;2023-04-06T06:43:48;8.90;;;7.90;;
12774;SDS011;6451;42.630;23.382;2023-04-06T06:46:15;9.60;;;8.13;;
12774;SDS011;6451;42.630;23.382;2023-04-06T06:48:42;11.27;;;9.73;;
12774;SDS011;6451;42.630;23.382;2023-04-06T06:51:12;10.53;;;8.37;;
12774;SDS011;6451;42.630;23.382;2023-04-06T06:53:40;10.27;;;6.97;;
12774;SDS011;6451;42.630;23.382;2023-04-06T06:56:07;11.23;;;8.47;;
12774;SDS011;6451;42.630;23.382;2023-04-06T06:58:34;11.23;;;8.60;;
12774;SDS011;6451;42.630;23.382;2023-04-06T07:01:01;15.77;;;9.77;;
12774;SDS011;6451;42.630;23.382;2023-04-06T07:03:30;11.37;;;9.17;;
12774;SDS011;6451;42.630;23.382;2023-04-06T07:05:58;11.13;;;8.33;;
12774;SDS011;6451;42.630;23.382;2023-04-06T07:08:26;10.40;;;8.27;;
12774;SDS011;6451;42.630;23.382;2023-04-06T07:10:53;12.73;;;9.03;;
12774;SDS011;6451;42.630;23.382;2023-04-06T07:13:22;14.90;;;9.50;;
12774;SDS011;6451;42.630;23.382;2023-04-06T07:15:51;12.23;;;9.00;;
12774;SDS011;6451;42.630;23.382;2023-04-06T07:18:18;11.00;;;9.57;;
12774;SDS011;6451;42.630;23.382;2023-04-06T07:20:46;11.13;;;8.37;;
12774;SDS011;6451;42.630;23.382;2023-04-06T07:23:13;10.80;;;9.27;;
12774;SDS011;6451;42.630;23.382;2023-04-06T07:25:41;13.47;;;9.43;;
12774;SDS011;6451;42.630;23.382;2023-04-06T07:28:08;9.30;;;8.10;;
12774;SDS011;6451;42.630;23.382;2023-04-06T07:30:36;9.63;;;8.03;;
12774;SDS011;6451;42.630;23.382;2023-04-06T07:33:04;12.53;;;9.30;;
12774;SDS011;6451;42.630;23.382;2023-04-06T07:35:31;10.57;;;8.00;;
12774;SDS011;6451;42.630;23.382;2023-04-06T07:38:01;11.57;;;8.00;;
12774;SDS011;6451;42.630;23.382;2023-04-06T07:40:28;11.03;;;8.17;;
12774;SDS011;6451;42.630;23.382;2023-04-06T07:42:58;12.93;;;10.20;;
12774;SDS011;6451;42.630;23.382;2023-04-06T07:45:25;11.37;;;9.13;;
12774;SDS011;6451;42.630;23.382;2023-04-06T07:47:52;9.10;;;7.77;;
12774;SDS011;6451;42.630;23.382;2023-04-06T07:50:19;11.23;;;8.83;;
12774;SDS011;6451;42.630;23.382;2023-04-06T07:52:47;10.97;;;8.30;;
12774;SDS011;6451;42.630;23.382;2023-04-06T07:55:17;12.33;;;9.20;;
12774;SDS011;6451;42.630;23.382;2023-04-06T07:57:43;15.30;;;9.93;;
12774;SDS011;6451;42.630;23.382;2023-04-06T08:00:12;14.47;;;11.00;;
12774;SDS011;6451;42.630;23.382;2023-04-06T08:02:40;12.03;;;10.30;;
12774;SDS011;6451;42.630;23.382;2023-04-06T08:05:08;13.63;;;9.57;;
12774;SDS011;6451;42.630;23.382;2023-04-06T08:07:35;12.40;;;9.50;;
12774;SDS011;6451;42.630;23.382;2023-04-06T08:10:04;12.40;;;10.60;;
12774;SDS011;6451;42.630;23.382;2023-04-06T08:12:31;13.17;;;10.03;;
12774;SDS011;6451;42.630;23.382;2023-04-06T08:17:31;10.03;;;8.17;;
12774;SDS011;6451;42.630;23.382;2023-04-06T08:19:59;11.07;;;7.67;;
12774;SDS011;6451;42.630;23.382;2023-04-06T08:22:26;9.97;;;8.80;;
12774;SDS011;6451;42.630;23.382;2023-04-06T08:27:23;11.10;;;9.67;;
12774;SDS011;6451;42.630;23.382;2023-04-06T08:29:51;10.57;;;8.70;;
12774;SDS011;6451;42.630;23.382;2023-04-06T08:32:18;14.80;;;9.47;;
12774;SDS011;6451;42.630;23.382;2023-04-06T08:34:46;11.23;;;8.40;;
12774;SDS011;6451;42.630;23.382;2023-04-06T08:37:13;10.40;;;7.60;;
12774;SDS011;6451;42.630;23.382;2023-04-06T08:39:40;9.77;;;7.70;;
12774;SDS011;6451;42.630;23.382;2023-04-06T08:42:10;10.77;;;7.93;;
12774;SDS011;6451;42.630;23.382;2023-04-06T08:44:42;9.03;;;7.30;;
12774;SDS011;6451;42.630;23.382;2023-04-06T08:47:11;8.10;;;7.30;;
12774;SDS011;6451;42.630;23.382;2023-04-06T08:49:38;9.57;;;7.10;;
12774;SDS011;6451;42.630;23.382;2023-04-06T08:52:07;7.80;;;6.53;;
12774;SDS011;6451;42.630;23.382;2023-04-06T08:54:34;9.47;;;6.97;;
12774;SDS011;6451;42.630;23.382;2023-04-06T08:57:01;7.77;;;6.67;;
12774;SDS011;6451;42.630;23.382;2023-04-06T08:59:29;10.77;;;6.47;;
12774;SDS011;6451;42.630;23.382;2023-04-06T09:01:56;10.67;;;6.13;;
12774;SDS011;6451;42.630;23.382;2023-04-06T09:04:24;6.87;;;6.00;;
12774;SDS011;6451;42.630;23.382;2023-04-06T09:06:52;9.07;;;7.30;;
12774;SDS011;6451;42.630;23.382;2023-04-06T09:09:21;7.87;;;6.13;;
12774;SDS011;6451;42.630;23.382;2023-04-06T09:11:50;12.77;;;7.87;;
12774;SDS011;6451;42.630;23.382;2023-04-06T09:14:32;9.87;;;7.87;;
12774;SDS011;6451;42.630;23.382;2023-04-06T09:17:01;9.63;;;8.00;;
12774;SDS011;6451;42.630;23.382;2023-04-06T09:19:29;9.47;;;7.13;;
12774;SDS011;6451;42.630;23.382;2023-04-06T09:22:01;7.37;;;6.53;;
12774;SDS011;6451;42.630;23.382;2023-04-06T09:24:40;8.47;;;6.37;;
12774;SDS011;6451;42.630;23.382;2023-04-06T09:27:08;9.17;;;7.77;;
12774;SDS011;6451;42.630;23.382;2023-04-06T09:29:41;9.17;;;7.47;;
12774;SDS011;6451;42.630;23.382;2023-04-06T09:32:09;7.97;;;7.10;;
12774;SDS011;6451;42.630;23.382;2023-04-06T09:34:37;9.10;;;6.90;;
12774;SDS011;6451;42.630;23.382;2023-04-06T09:37:14;8.87;;;7.50;;
12774;SDS011;6451;42.630;23.382;2023-04-06T09:39:42;6.80;;;5.80;;
12774;SDS011;6451;42.630;23.382;2023-04-06T09:42:11;9.70;;;7.80;;
12774;SDS011;6451;42.630;23.382;2023-04-06T09:44:49;7.60;;;6.53;;
12774;SDS011;6451;42.630;23.382;2023-04-06T09:47:16;8.37;;;7.43;;
12774;SDS011;6451;42.630;23.382;2023-04-06T09:49:44;8.67;;;7.07;;
12774;SDS011;6451;42.630;23.382;2023-04-06T09:52:14;8.07;;;6.83;;
12774;SDS011;6451;42.630;23.382;2023-04-06T09:54:43;9.83;;;7.60;;
12774;SDS011;6451;42.630;23.382;2023-04-06T09:57:15;6.23;;;5.20;;
12774;SDS011;6451;42.630;23.382;2023-04-06T09:59:52;9.40;;;7.70;;
12774;SDS011;6451;42.630;23.382;2023-04-06T10:02:32;6.20;;;5.50;;
12774;SDS011;6451;42.630;23.382;2023-04-06T10:05:07;8.40;;;6.13;;
12774;SDS011;6451;42.630;23.382;2023-04-06T10:07:39;7.27;;;5.67;;
12774;SDS011;6451;42.630;23.382;2023-04-06T10:10:10;9.97;;;7.33;;
12774;SDS011;6451;42.630;23.382;2023-04-06T10:12:40;7.80;;;6.20;;
12774;SDS011;6451;42.630;23.382;2023-04-06T10:15:11;8.70;;;6.93;;
12774;SDS011;6451;42.630;23.382;2023-04-06T10:17:38;7.93;;;7.10;;
12774;SDS011;6451;42.630;23.382;2023-04-06T10:20:06;8.43;;;6.60;;
12774;SDS011;6451;42.630;23.382;2023-04-06T10:22:39;8.30;;;7.40;;
12774;SDS011;6451;42.630;23.382;2023-04-06T10:25:18;8.80;;;6.37;;
12774;SDS011;6451;42.630;23.382;2023-04-06T10:27:58;9.63;;;7.70;;
12774;SDS011;6451;42.630;23.382;2023-04-06T10:30:26;8.13;;;7.30;;
12774;SDS011;6451;42.630;23.382;2023-04-06T10:32:54;7.77;;;6.33;;
12774;SDS011;6451;42.630;23.382;2023-04-06T10:35:21;8.80;;;6.57;;
12774;SDS011;6451;42.630;23.382;2023-04-06T10:37:52;8.80;;;7.37;;
12774;SDS011;6451;42.630;23.382;2023-04-06T10:40:28;8.60;;;7.30;;
12774;SDS011;6451;42.630;23.382;2023-04-06T10:43:07;9.33;;;6.97;;
12774;SDS011;6451;42.630;23.382;2023-04-06T10:45:35;12.47;;;7.80;;
12774;SDS011;6451;42.630;23.382;2023-04-06T10:48:12;10.97;;;7.50;;
12774;SDS011;6451;42.630;23.382;2023-04-06T10:50:41;9.03;;;7.87;;
12774;SDS011;6451;42.630;23.382;2023-04-06T10:53:08;9.00;;;7.80;;
12774;SDS011;6451;42.630;23.382;2023-04-06T10:55:37;6.90;;;6.20;;
12774;SDS011;6451;42.630;23.382;2023-04-06T10:58:06;11.70;;;7.90;;
12774;SDS011;6451;42.630;23.382;2023-04-06T11:00:33;8.70;;;7.43;;
12774;SDS011;6451;42.630;23.382;2023-04-06T11:03:01;8.13;;;7.33;;
12774;SDS011;6451;42.630;23.382;2023-04-06T11:05:28;12.27;;;8.57;;
12774;SDS011;6451;42.630;23.382;2023-04-06T11:07:56;8.90;;;8.00;;
12774;SDS011;6451;42.630;23.382;2023-04-06T11:10:24;10.70;;;8.00;;
12774;SDS011;6451;42.630;23.382;2023-04-06T11:12:54;9.77;;;8.17;;
12774;SDS011;6451;42.630;23.382;2023-04-06T11:15:21;10.90;;;8.00;;
12774;SDS011;6451;42.630;23.382;2023-04-06T11:17:49;9.40;;;8.40;;
12774;SDS011;6451;42.630;23.382;2023-04-06T11:20:16;11.13;;;8.50;;
12774;SDS011;6451;42.630;23.382;2023-04-06T11:22:48;10.60;;;8.27;;
12774;SDS011;6451;42.630;23.382;2023-04-06T11:25:16;8.57;;;7.77;;
12774;SDS011;6451;42.630;23.382;2023-04-06T11:27:43;8.77;;;7.87;;
12774;SDS011;6451;42.630;23.382;2023-04-06T11:30:13;7.90;;;7.10;;
12774;SDS011;6451;42.630;23.382;2023-04-06T11:32:41;11.33;;;8.27;;
12774;SDS011;6451;42.630;23.382;2023-04-06T11:35:10;10.67;;;7.70;;
12774;SDS011;6451;42.630;23.382;2023-04-06T11:37:46;10.83;;;8.37;;
12774;SDS011;6451;42.630;23.382;2023-04-06T11:40:13;10.47;;;8.00;;
12774;SDS011;6451;42.630;23.382;2023-04-06T11:42:40;8.47;;;7.63;;
12774;SDS011;6451;42.630;23.382;2023-04-06T11:45:07;9.07;;;8.07;;
12774;SDS011;6451;42.630;23.382;2023-04-06T11:47:36;10.60;;;7.97;;
12774;SDS011;6451;42.630;23.382;2023-04-06T11:50:07;9.00;;;8.10;;
12774;SDS011;6451;42.630;23.382;2023-04-06T11:52:34;10.50;;;7.60;;
12774;SDS011;6451;42.630;23.382;2023-04-06T11:55:15;11.73;;;8.30;;
12774;SDS011;6451;42.630;23.382;2023-04-06T11:57:43;8.67;;;7.70;;
12774;SDS011;6451;42.630;23.382;2023-04-06T12:00:10;8.67;;;7.87;;
12774;SDS011;6451;42.630;23.382;2023-04-06T12:02:39;8.63;;;7.47;;
12774;SDS011;6451;42.630;23.382;2023-04-06T12:05:11;9.83;;;8.43;;
12774;SDS011;6451;42.630;23.382;2023-04-06T12:07:38;8.53;;;7.07;;
12774;SDS011;6451;42.630;23.382;2023-04-06T12:10:06;8.83;;;7.50;;
12774;SDS011;6451;42.630;23.382;2023-04-06T12:12:34;9.33;;;8.43;;
12774;SDS011;6451;42.630;23.382;2023-04-06T12:15:01;10.80;;;8.30;;
12774;SDS011;6451;42.630;23.382;2023-04-06T12:17:30;12.33;;;9.03;;
12774;SDS011;6451;42.630;23.382;2023-04-06T12:19:58;12.90;;;8.50;;
12774;SDS011;6451;42.630;23.382;2023-04-06T12:22:26;9.30;;;8.33;;
12774;SDS011;6451;42.630;23.382;2023-04-06T12:24:55;8.97;;;8.00;;
12774;SDS011;6451;42.630;23.382;2023-04-06T12:27:23;10.63;;;8.60;;
12774;SDS011;6451;42.630;23.382;2023-04-06T12:29:50;10.00;;;8.07;;
12774;SDS011;6451;42.630;23.382;2023-04-06T12:32:17;10.43;;;8.50;;
12774;SDS011;6451;42.630;23.382;2023-04-06T12:34:44;8.97;;;7.87;;
12774;SDS011;6451;42.630;23.382;2023-04-06T12:37:13;8.93;;;7.93;;
12774;SDS011;6451;42.630;23.382;2023-04-06T12:39:40;9.77;;;8.30;;
12774;SDS011;6451;42.630;23.382;2023-04-06T12:42:09;9.43;;;8.40;;
12774;SDS011;6451;42.630;23.382;2023-04-06T12:44:37;8.80;;;7.90;;
12774;SDS011;6451;42.630;23.382;2023-04-06T12:47:04;11.23;;;7.33;;
12774;SDS011;6451;42.630;23.382;2023-04-06T12:49:34;8.20;;;7.10;;
12774;SDS011;6451;42.630;23.382;2023-04-06T12:52:02;10.53;;;8.50;;
12774;SDS011;6451;42.630;23.382;2023-04-06T12:54:31;9.03;;;6.93;;
12774;SDS011;6451;42.630;23.382;2023-04-06T12:56:58;10.80;;;8.07;;
12774;SDS011;6451;42.630;23.382;2023-04-06T12:59:26;7.80;;;7.00;;
12774;SDS011;6451;42.630;23.382;2023-04-06T13:01:56;9.13;;;7.97;;
12774;SDS011;6451;42.630;23.382;2023-04-06T13:04:23;12.60;;;8.20;;
12774;SDS011;6451;42.630;23.382;2023-04-06T13:06:51;8.90;;;7.17;;
12774;SDS011;6451;42.630;23.382;2023-04-06T13:09:18;13.00;;;8.07;;
12774;SDS011;6451;42.630;23.382;2023-04-06T13:11:48;9.70;;;7.63;;
12774;SDS011;6451;42.630;23.382;2023-04-06T13:14:15;10.10;;;7.87;;
12774;SDS011;6451;42.630;23.382;2023-04-06T13:16:42;10.07;;;8.00;;
12774;SDS011;6451;42.630;23.382;2023-04-06T13:19:10;9.73;;;8.00;;
12774;SDS011;6451;42.630;23.382;2023-04-06T13:21:37;11.10;;;8.40;;
12774;SDS011;6451;42.630;23.382;2023-04-06T13:24:04;11.23;;;8.20;;
12774;SDS011;6451;42.630;23.382;2023-04-06T13:26:31;10.67;;;8.53;;
12774;SDS011;6451;42.630;23.382;2023-04-06T13:29:00;10.27;;;8.17;;
12774;SDS011;6451;42.630;23.382;2023-04-06T13:31:27;10.90;;;8.60;;
12774;SDS011;6451;42.630;23.382;2023-04-06T13:33:54;10.13;;;8.43;;
12774;SDS011;6451;42.630;23.382;2023-04-06T13:36:21;9.70;;;8.07;;
12774;SDS011;6451;42.630;23.382;2023-04-06T13:38:55;9.37;;;8.40;;
12774;SDS011;6451;42.630;23.382;2023-04-06T13:41:24;8.97;;;7.60;;
12774;SDS011;6451;42.630;23.382;2023-04-06T13:43:51;9.50;;;8.50;;
12774;SDS011;6451;42.630;23.382;2023-04-06T13:46:20;9.33;;;8.40;;
12774;SDS011;6451;42.630;23.382;2023-04-06T13:48:50;9.17;;;8.27;;
12774;SDS011;6451;42.630;23.382;2023-04-06T13:51:17;8.93;;;7.53;;
12774;SDS011;6451;42.630;23.382;2023-04-06T13:53:44;9.63;;;7.50;;
12774;SDS011;6451;42.630;23.382;2023-04-06T13:56:12;8.80;;;7.77;;
12774;SDS011;6451;42.630;23.382;2023-04-06T13:58:39;11.90;;;7.37;;
12774;SDS011;6451;42.630;23.382;2023-04-06T14:01:08;9.13;;;8.10;;
12774;SDS011;6451;42.630;23.382;2023-04-06T14:03:36;11.03;;;8.30;;
12774;SDS011;6451;42.630;23.382;2023-04-06T14:06:09;9.03;;;6.93;;
12774;SDS011;6451;42.630;23.382;2023-04-06T14:08:36;9.77;;;6.97;;
12774;SDS011;6451;42.630;23.382;2023-04-06T14:11:04;9.07;;;6.87;;
12774;SDS011;6451;42.630;23.382;2023-04-06T14:13:33;9.67;;;7.13;;
12774;SDS011;6451;42.630;23.382;2023-04-06T14:16:00;9.43;;;6.17;;
12774;SDS011;6451;42.630;23.382;2023-04-06T14:18:29;8.87;;;7.77;;
12774;SDS011;6451;42.630;23.382;2023-04-06T14:21:05;9.37;;;6.67;;
12774;SDS011;6451;42.630;23.382;2023-04-06T14:23:33;10.60;;;6.80;;
12774;SDS011;6451;42.630;23.382;2023-04-06T14:26:01;8.00;;;7.20;;
12774;SDS011;6451;42.630;23.382;2023-04-06T14:28:30;9.37;;;7.47;;
12774;SDS011;6451;42.630;23.382;2023-04-06T14:30:58;9.10;;;7.97;;
12774;SDS011;6451;42.630;23.382;2023-04-06T14:33:25;9.80;;;7.87;;
12774;SDS011;6451;42.630;23.382;2023-04-06T14:35:54;8.80;;;7.70;;
12774;SDS011;6451;42.630;23.382;2023-04-06T14:38:23;8.83;;;7.93;;
12774;SDS011;6451;42.630;23.382;2023-04-06T14:40:50;7.50;;;6.80;;
12774;SDS011;6451;42.630;23.382;2023-04-06T14:43:17;10.90;;;7.43;;
12774;SDS011;6451;42.630;23.382;2023-04-06T14:45:44;8.50;;;7.00;;
12774;SDS011;6451;42.630;23.382;2023-04-06T14:48:11;8.90;;;7.47;;
12774;SDS011;6451;42.630;23.382;2023-04-06T14:50:42;8.17;;;7.20;;
12774;SDS011;6451;42.630;23.382;2023-04-06T14:53:18;8.20;;;7.40;;
12774;SDS011;6451;42.630;23.382;2023-04-06T14:55:47;8.93;;;7.73;;
12774;SDS011;6451;42.630;23.382;2023-04-06T14:58:16;8.63;;;6.63;;
12774;SDS011;6451;42.630;23.382;2023-04-06T15:00:54;7.87;;;6.77;;
12774;SDS011;6451;42.630;23.382;2023-04-06T15:03:21;9.23;;;8.03;;